Time;durP1;ratioP1;P1;durP2;ratioP2;P2;SDS_P1;SDS_P2;PMS_P1;PMS_P2;Temp;Humidity;BMP_temperature;BMP_pressure;BME280_temperature;BME280_humidity;BME280_pressure;Samples;Min_cycle;Max_cycle;Signal;HPM_P1;HPM_P2
2023/04/14 00:02:19;;;;;;;2.10;1.90;;;;;;;4.60;85.19;96550.09;5961559;29;20329;-48
2023/04/14 00:05:22;;;;;;;2.20;2.00;;;;;;;4.55;85.29;96538.63;5959940;29;20235;-44
2023/04/14 00:08:24;;;;;;;2.47;2.07;;;;;;;4.49;86.03;96535.09;5959572;29;20334;-45
2023/04/14 00:11:26;;;;;;;3.83;2.07;;;;;;;4.54;84.48;96547.59;5955790;29;20301;-44
2023/04/14 00:14:28;;;;;;;1.70;1.60;;;;;;;4.37;85.12;96550.09;5959081;29;20239;-44
2023/04/14 00:17:30;;;;;;;1.60;1.50;;;;;;;4.46;83.78;96548.72;5957604;29;20320;-45
2023/04/14 00:20:32;;;;;;;2.50;1.40;;;;;;;4.30;84.13;96539.69;5960189;29;20925;-44
2023/04/14 00:23:34;;;;;;;1.20;1.10;;;;;;;4.39;83.48;96540.94;5955792;29;20231;-44
2023/04/14 00:26:36;;;;;;;1.27;1.17;;;;;;;4.32;83.50;96552.63;5958927;29;20840;-43
2023/04/14 00:29:38;;;;;;;2.10;0.93;;;;;;;4.23;83.81;96554.00;5961333;29;20248;-44
2023/04/14 00:32:40;;;;;;;0.80;0.80;;;;;;;4.06;84.10;96556.53;5957999;29;20250;-43
2023/04/14 00:35:43;;;;;;;1.13;0.97;;;;;;;3.99;84.98;96559.28;5959376;29;20634;-46
2023/04/14 00:38:45;;;;;;;1.10;1.00;;;;;;;3.91;85.75;96564.06;5953728;29;20329;-46
2023/04/14 00:41:48;;;;;;;1.57;1.20;;;;;;;3.61;86.37;96517.50;5962774;29;20322;-45
2023/04/14 00:44:50;;;;;;;1.00;0.90;;;;;;;3.79;86.64;96564.84;5955578;29;20359;-46
2023/04/14 00:47:53;;;;;;;1.03;0.93;;;;;;;3.74;86.97;96566.53;5972710;29;20751;-45
2023/04/14 00:50:55;;;;;;;1.03;0.70;;;;;;;3.66;86.99;96551.88;5959210;29;20667;-45
2023/04/14 00:53:57;;;;;;;0.93;0.93;;;;;;;3.68;87.35;96560.34;5959870;29;20604;-46
2023/04/14 00:57:01;;;;;;;1.13;0.70;;;;;;;3.64;87.41;96548.66;5959060;29;20765;-45
2023/04/14 01:00:04;;;;;;;0.73;0.73;;;;;;;3.67;86.87;96561.38;5959220;29;20292;-43
2023/04/14 01:03:07;;;;;;;1.80;1.00;;;;;;;3.60;86.42;96558.84;5958106;29;20274;-43
2023/04/14 01:06:10;;;;;;;0.60;0.60;;;;;;;3.50;85.61;96561.22;5959613;29;20231;-45
2023/04/14 01:09:14;;;;;;;1.87;0.70;;;;;;;3.35;85.83;96577.41;5956336;29;20246;-43
2023/04/14 01:12:25;;;;;;;2.13;1.10;;;;;;;3.22;86.46;96580.22;5958032;29;20221;-43
2023/04/14 01:15:56;;;;;;;3.27;0.60;;;;;;;3.15;86.77;96582.13;5955416;29;20272;-44
2023/04/14 01:19:20;;;;;;;0.40;0.30;;;;;;;2.93;85.72;96587.03;5954161;29;20239;-46
2023/04/14 01:22:29;;;;;;;0.63;0.60;;;;;;;2.84;85.85;96577.84;5955335;29;20291;-45
2023/04/14 01:25:49;;;;;;;0.50;0.30;;;;;;;2.74;86.32;96573.09;5969418;29;20243;-46
2023/04/14 01:29:01;;;;;;;0.60;0.60;;;;;;;2.61;86.14;96560.09;5960544;29;20823;-45
2023/04/14 01:32:09;;;;;;;2.37;0.40;;;;;;;2.57;86.48;96572.88;5959191;29;20309;-45
2023/04/14 01:35:31;;;;;;;0.73;0.27;;;;;;;2.23;86.58;96531.38;5963959;29;20244;-44
2023/04/14 01:38:36;;;;;;;1.40;0.50;;;;;;;2.42;86.85;96584.75;5957491;29;20242;-44
2023/04/14 01:41:43;;;;;;;0.73;0.57;;;;;;;2.43;86.80;96596.88;5960320;29;20237;-45
2023/04/14 01:44:50;;;;;;;0.30;0.30;;;;;;;2.34;86.97;96593.72;5966547;29;20383;-46
2023/04/14 01:47:54;;;;;;;0.30;0.30;;;;;;;2.30;86.98;96593.34;5961669;29;20323;-43
2023/04/14 01:50:59;;;;;;;2.33;0.50;;;;;;;2.17;87.17;96561.94;5962179;29;20235;-44
2023/04/14 01:54:03;;;;;;;0.30;0.30;;;;;;;2.23;87.31;96587.34;5976232;29;20256;-43
2023/04/14 01:57:08;;;;;;;2.43;0.30;;;;;;;2.09;87.31;96562.22;5958534;29;20212;-43
2023/04/14 02:00:11;;;;;;;0.20;0.20;;;;;;;2.07;87.15;96566.88;5961180;29;20235;-45
2023/04/14 02:03:20;;;;;;;0.40;0.20;;;;;;;1.83;87.28;96528.31;5962722;29;20703;-43
2023/04/14 02:06:23;;;;;;;0.80;0.30;;;;;;;1.98;87.46;96555.03;5966203;29;20996;-44
2023/04/14 02:09:27;;;;;;;0.60;0.20;;;;;;;1.90;87.84;96558.72;5975823;29;20589;-43
2023/04/14 02:12:30;;;;;;;0.43;0.30;;;;;;;1.93;87.43;96536.50;5961378;29;20243;-44
2023/04/14 02:15:34;;;;;;;0.20;0.10;;;;;;;1.90;87.42;96539.53;5945902;29;20291;-43
2023/04/14 02:18:39;;;;;;;0.27;0.20;;;;;;;1.90;87.79;96521.97;5966607;29;20245;-43
2023/04/14 02:21:41;;;;;;;0.60;0.20;;;;;;;1.95;88.07;96526.56;5961090;29;20312;-42
2023/04/14 02:24:46;;;;;;;0.17;0.17;;;;;;;1.93;88.26;96523.38;5960326;29;20638;-45
2023/04/14 02:27:59;;;;;;;0.17;0.17;;;;;;;1.86;87.07;96477.97;5958736;29;20390;-43
2023/04/14 02:31:06;;;;;;;0.10;0.10;;;;;;;2.13;85.98;96504.78;5961476;29;20273;-44
2023/04/14 02:34:11;;;;;;;0.10;0.10;;;;;;;1.88;86.29;96471.50;5958517;29;20337;-44
2023/04/14 02:37:26;;;;;;;0.10;0.10;;;;;;;2.04;86.51;96499.00;5958549;29;20806;-42
2023/04/14 02:40:37;;;;;;;0.17;0.17;;;;;;;2.01;86.24;96502.06;5960518;29;20271;-43
2023/04/14 02:43:53;;;;;;;0.10;0.10;;;;;;;1.93;86.43;96499.72;5961846;29;20259;-44
2023/04/14 02:47:06;;;;;;;0.70;0.30;;;;;;;1.80;87.75;96501.44;5956863;29;20301;-42
2023/04/14 02:50:15;;;;;;;0.10;0.10;;;;;;;1.83;86.93;96497.59;5946553;29;20893;-44
2023/04/14 02:53:27;;;;;;;0.10;0.10;;;;;;;1.96;86.34;96478.28;5958229;29;20611;-42
2023/04/14 02:56:44;;;;;;;0.93;0.20;;;;;;;1.88;87.18;96470.69;5959917;29;20697;-44
2023/04/14 02:59:47;;;;;;;0.27;0.20;;;;;;;2.05;85.90;96458.59;5959464;29;20618;-42
2023/04/14 03:02:52;;;;;;;0.20;0.20;;;;;;;2.00;86.11;96461.06;5960676;29;20446;-42
2023/04/14 03:05:55;;;;;;;0.30;0.10;;;;;;;1.93;86.13;96458.50;5959248;29;20332;-42
2023/04/14 03:08:59;;;;;;;0.20;0.20;;;;;;;1.92;87.07;96458.72;5960018;29;20322;-42
2023/04/14 03:12:05;;;;;;;0.10;0.10;;;;;;;1.90;87.31;96461.56;5959911;29;20247;-42
2023/04/14 03:15:08;;;;;;;0.10;0.10;;;;;;;2.13;85.68;96450.44;5959172;29;20280;-42
2023/04/14 03:18:13;;;;;;;0.10;0.10;;;;;;;1.96;85.98;96441.50;5957993;29;20309;-42
2023/04/14 03:21:18;;;;;;;0.00;0.00;;;;;;;1.97;86.74;96456.22;5959811;29;20795;-42
2023/04/14 03:24:27;;;;;;;0.03;0.03;;;;;;;2.09;85.82;96437.94;5959532;29;20260;-43
2023/04/14 03:27:30;;;;;;;0.00;0.00;;;;;;;2.15;85.13;96448.38;5951850;29;20239;-42
2023/04/14 03:30:38;;;;;;;0.00;0.00;;;;;;;2.12;85.28;96455.88;5960399;29;20227;-43
2023/04/14 03:33:43;;;;;;;0.10;0.10;;;;;;;2.11;85.45;96464.78;5962164;29;20459;-43
2023/04/14 03:36:51;;;;;;;0.07;0.07;;;;;;;2.06;85.75;96457.56;5956938;29;20232;-43
2023/04/14 03:39:59;;;;;;;0.10;0.10;;;;;;;2.08;85.83;96452.09;5957291;29;20244;-43
2023/04/14 03:43:08;;;;;;;0.10;0.10;;;;;;;2.01;85.94;96437.19;5959083;29;20852;-43
2023/04/14 03:46:13;;;;;;;0.10;0.10;;;;;;;1.97;85.02;96445.72;5958919;29;20615;-44
2023/04/14 03:49:19;;;;;;;0.10;0.10;;;;;;;1.89;85.86;96425.81;5955134;29;20248;-43
2023/04/14 03:52:23;;;;;;;0.00;0.00;;;;;;;1.91;85.70;96420.34;5957975;29;20251;-44
2023/04/14 03:55:30;;;;;;;0.00;0.00;;;;;;;1.83;86.16;96433.78;5958642;29;20780;-43
2023/04/14 03:58:33;;;;;;;0.00;0.00;;;;;;;1.86;86.08;96431.50;5957364;29;20252;-44
2023/04/14 04:01:38;;;;;;;0.20;0.10;;;;;;;1.79;86.16;96423.69;5959395;29;20240;-44
2023/04/14 04:04:43;;;;;;;0.10;0.10;;;;;;;1.63;86.88;96429.50;5956445;29;20242;-44
2023/04/14 04:07:46;;;;;;;0.10;0.10;;;;;;;1.82;86.22;96435.56;5958390;29;20263;-42
2023/04/14 04:10:50;;;;;;;0.53;0.10;;;;;;;1.76;86.60;96421.50;5959245;29;20402;-43
2023/04/14 04:13:54;;;;;;;0.00;0.00;;;;;;;1.58;86.61;96391.78;5958428;29;20271;-44
2023/04/14 04:17:01;;;;;;;0.10;0.10;;;;;;;1.74;86.10;96401.75;5957015;29;20247;-43
2023/04/14 04:20:11;;;;;;;0.00;0.00;;;;;;;1.81;85.98;96403.25;5959037;29;20236;-44
2023/04/14 04:23:17;;;;;;;0.03;0.03;;;;;;;1.87;85.17;96398.16;5948884;29;20246;-42
2023/04/14 04:26:22;;;;;;;0.10;0.10;;;;;;;1.76;85.90;96400.50;5957909;29;20246;-45
2023/04/14 04:29:26;;;;;;;0.10;0.10;;;;;;;1.88;85.24;96384.84;5958700;29;20251;-42
2023/04/14 04:32:28;;;;;;;0.30;0.10;;;;;;;1.86;85.60;96375.56;5955852;29;20239;-43
2023/04/14 04:35:32;;;;;;;0.10;0.10;;;;;;;1.93;85.48;96368.44;5961694;29;20241;-43
2023/04/14 04:38:34;;;;;;;0.60;0.30;;;;;;;1.82;85.26;96383.06;5956519;29;20240;-42
2023/04/14 04:41:36;;;;;;;0.10;0.10;;;;;;;1.86;85.42;96373.72;5960799;29;20242;-43
2023/04/14 04:44:39;;;;;;;0.20;0.20;;;;;;;1.75;85.83;96385.75;5954115;29;20330;-43
2023/04/14 04:47:41;;;;;;;0.10;0.10;;;;;;;1.85;85.19;96377.38;5959497;29;20283;-43
2023/04/14 04:50:44;;;;;;;0.10;0.10;;;;;;;1.89;84.99;96388.25;5956956;29;20769;-42
2023/04/14 04:53:46;;;;;;;0.17;0.17;;;;;;;1.91;85.26;96391.47;5955682;29;20266;-43
2023/04/14 04:56:48;;;;;;;0.10;0.10;;;;;;;1.78;85.82;96400.28;5958586;29;20231;-43
2023/04/14 04:59:50;;;;;;;0.10;0.10;;;;;;;1.78;85.26;96400.28;5961811;29;20237;-43
2023/04/14 05:02:52;;;;;;;0.10;0.10;;;;;;;1.61;86.47;96388.75;5963503;29;20321;-43
2023/04/14 05:05:58;;;;;;;0.30;0.10;;;;;;;1.61;87.09;96389.53;5963832;29;20754;-44
2023/04/14 05:09:00;;;;;;;0.37;0.10;;;;;;;1.71;86.78;96381.97;5963909;29;20318;-44
2023/04/14 05:12:02;;;;;;;0.23;0.10;;;;;;;1.63;87.43;96395.41;5962762;29;20235;-42
2023/04/14 05:15:07;;;;;;;0.10;0.10;;;;;;;1.64;87.60;96394.38;5963173;29;20690;-44
2023/04/14 05:18:09;;;;;;;0.57;0.10;;;;;;;1.59;87.73;96391.59;5962712;29;20237;-46
2023/04/14 05:21:12;;;;;;;0.10;0.10;;;;;;;1.61;87.50;96394.00;5962163;29;20266;-43
2023/04/14 05:24:14;;;;;;;0.93;0.13;;;;;;;1.61;88.21;96405.28;5963293;29;20335;-44
2023/04/14 05:27:16;;;;;;;0.10;0.10;;;;;;;1.61;87.66;96405.28;5963623;29;20236;-48
2023/04/14 05:30:18;;;;;;;0.10;0.10;;;;;;;1.61;87.95;96394.00;5962783;29;20251;-46
2023/04/14 05:33:21;;;;;;;0.10;0.10;;;;;;;1.72;86.67;96390.63;5962847;29;22861;-47
2023/04/14 05:36:24;;;;;;;0.03;0.00;;;;;;;1.74;86.22;96389.41;6431254;24;20295;-47
2023/04/14 05:39:26;;;;;;;0.10;0.10;;;;;;;1.59;85.82;96360.09;5972371;29;20692;-50
2023/04/14 05:42:28;;;;;;;0.10;0.10;;;;;;;1.84;85.32;96372.38;5974045;29;20239;-48
2023/04/14 05:45:30;;;;;;;0.10;0.10;;;;;;;1.91;84.88;96373.88;5973668;29;20236;-49
2023/04/14 05:48:34;;;;;;;0.00;0.00;;;;;;;2.03;84.30;96373.97;5974580;29;20239;-47
2023/04/14 05:51:36;;;;;;;0.10;0.10;;;;;;;1.86;85.73;96392.13;5973651;29;20715;-49
2023/04/14 05:54:39;;;;;;;0.10;0.10;;;;;;;1.87;86.29;96408.66;5975608;29;20283;-48
2023/04/14 05:57:44;;;;;;;0.10;0.10;;;;;;;1.55;86.52;96358.91;5974387;29;20758;-48
2023/04/14 06:00:46;;;;;;;0.00;0.00;;;;;;;1.81;86.76;96389.34;5973651;29;20330;-47
2023/04/14 06:03:48;;;;;;;0.10;0.10;;;;;;;1.81;87.27;96397.22;5973681;29;20277;-50
2023/04/14 06:06:50;;;;;;;0.27;0.10;;;;;;;1.80;87.25;96406.13;5973446;29;20247;-48
2023/04/14 06:09:53;;;;;;;0.77;0.53;;;;;;;1.91;86.89;96396.72;5971645;29;20253;-47
2023/04/14 06:12:55;;;;;;;0.20;0.20;;;;;;;2.01;85.62;96402.25;5977792;29;20692;-46
2023/04/14 06:15:58;;;;;;;0.13;0.10;;;;;;;1.94;85.74;96389.22;5973644;29;20594;-45
2023/04/14 06:19:02;;;;;;;0.60;0.10;;;;;;;1.92;86.92;96393.88;5972978;29;20232;-44
2023/04/14 06:22:10;;;;;;;0.20;0.20;;;;;;;1.94;86.84;96385.78;5973443;29;20384;-43
2023/04/14 06:25:13;;;;;;;0.30;0.30;;;;;;;2.09;85.95;96396.72;5973803;29;20244;-43
2023/04/14 06:28:15;;;;;;;0.10;0.10;;;;;;;2.12;85.53;96400.72;5974874;29;20324;-42
2023/04/14 06:31:19;;;;;;;0.13;0.13;;;;;;;2.09;85.28;96394.09;5972992;29;20591;-50
2023/04/14 06:34:25;;;;;;;0.10;0.10;;;;;;;2.08;84.65;96357.56;5975041;29;20244;-49
2023/04/14 06:37:35;;;;;;;0.20;0.20;;;;;;;2.06;85.63;96390.06;5972075;29;20250;-48
2023/04/14 06:40:46;;;;;;;0.20;0.20;;;;;;;2.05;86.02;96390.28;5971400;29;20789;-51
2023/04/14 06:43:56;;;;;;;0.10;0.10;;;;;;;2.08;85.68;96403.00;5972436;29;20705;-50
2023/04/14 06:46:58;;;;;;;0.27;0.27;;;;;;;2.10;86.02;96392.28;5971986;29;20782;-46
2023/04/14 06:50:01;;;;;;;0.20;0.20;;;;;;;2.06;86.21;96382.19;5973015;29;20259;-44
2023/04/14 06:53:05;;;;;;;0.30;0.30;;;;;;;2.02;86.38;96386.31;5972172;29;20247;-48
2023/04/14 06:56:08;;;;;;;0.40;0.40;;;;;;;2.04;87.29;96375.56;5972741;29;20730;-48
2023/04/14 06:59:10;;;;;;;0.10;0.10;;;;;;;2.17;86.03;96374.59;5958411;29;20238;-49
2023/04/14 07:02:12;;;;;;;0.20;0.20;;;;;;;2.24;85.98;96360.38;5971368;29;20245;-50
2023/04/14 07:05:16;;;;;;;0.10;0.10;;;;;;;2.19;85.32;96360.22;5972519;29;20734;-51
2023/04/14 07:08:20;;;;;;;0.13;0.13;;;;;;;2.27;85.71;96359.94;5971638;29;20245;-49
2023/04/14 07:11:24;;;;;;;0.27;0.10;;;;;;;2.17;86.36;96356.19;5971567;29;20251;-50
2023/04/14 07:14:26;;;;;;;0.10;0.10;;;;;;;2.36;85.55;96351.72;5971175;29;20243;-48
2023/04/14 07:17:29;;;;;;;0.13;0.13;;;;;;;2.27;85.80;96357.31;5970639;29;20247;-49
2023/04/14 07:20:31;;;;;;;0.20;0.20;;;;;;;2.27;86.27;96346.78;5971191;29;20243;-49
2023/04/14 07:23:33;;;;;;;0.20;0.20;;;;;;;2.36;85.99;96339.38;5971744;29;20280;-48
2023/04/14 07:26:36;;;;;;;0.20;0.20;;;;;;;2.31;86.23;96355.81;5971893;29;20249;-50
2023/04/14 07:29:42;;;;;;;0.20;0.20;;;;;;;2.38;85.65;96353.13;5970326;29;20805;-47
2023/04/14 07:32:49;;;;;;;0.10;0.10;;;;;;;2.39;85.70;96351.28;5971627;29;20606;-55
2023/04/14 07:35:55;;;;;;;0.10;0.10;;;;;;;2.16;86.05;96318.63;5969892;29;20236;-54
2023/04/14 07:39:20;;;;;;;0.10;0.10;;;;;;;2.50;85.20;96338.19;5963029;29;20240;-54
2023/04/14 07:42:58;;;;;;;0.50;0.40;;;;;;;2.38;84.65;96337.34;5946135;29;20263;-54
2023/04/14 07:47:05;;;;;;;1.10;0.60;;;;;;;2.24;86.08;96341.19;5970339;29;20600;-54
2023/04/14 07:50:54;;;;;;;0.43;0.20;;;;;;;2.07;86.15;96330.50;5957901;29;20309;-52
2023/04/14 07:54:28;;;;;;;0.20;0.20;;;;;;;2.31;85.19;96358.44;5929701;29;20239;-49
2023/04/14 07:57:40;;;;;;;0.87;0.30;;;;;;;2.27;85.48;96372.28;5963110;29;21003;-51
2023/04/14 08:00:44;;;;;;;0.47;0.30;;;;;;;2.20;85.94;96368.91;5947789;29;20746;-49
2023/04/14 08:03:47;;;;;;;0.33;0.20;;;;;;;2.25;85.34;96369.03;5971469;29;20247;-49
2023/04/14 08:06:50;;;;;;;0.10;0.10;;;;;;;2.27;84.78;96372.28;5973767;29;20249;-40
2023/04/14 08:09:52;;;;;;;0.13;0.13;;;;;;;2.17;85.21;96372.78;5971327;29;20397;-39
2023/04/14 08:12:54;;;;;;;0.20;0.20;;;;;;;2.17;85.42;96362.28;5970745;29;20259;-40
2023/04/14 08:15:56;;;;;;;0.20;0.20;;;;;;;2.09;86.04;96364.41;5970779;29;20240;-40
2023/04/14 08:18:58;;;;;;;0.10;0.10;;;;;;;2.05;85.87;96369.28;5970934;29;20277;-40
2023/04/14 08:22:00;;;;;;;0.40;0.33;;;;;;;2.15;85.20;96374.81;5971118;29;20243;-40
2023/04/14 08:25:03;;;;;;;1.17;0.30;;;;;;;1.86;86.02;96320.41;5954850;29;20264;-40
2023/04/14 08:28:05;;;;;;;0.83;0.10;;;;;;;1.93;86.60;96335.09;5970834;29;20239;-40
2023/04/14 08:31:07;;;;;;;0.10;0.10;;;;;;;2.11;86.47;96351.84;5970570;29;20238;-41
2023/04/14 08:34:09;;;;;;;0.10;0.10;;;;;;;2.23;85.72;96340.38;5969871;29;20262;-40
2023/04/14 08:37:12;;;;;;;0.10;0.10;;;;;;;2.21;86.18;96333.72;5970291;29;20253;-41
2023/04/14 08:40:16;;;;;;;0.43;0.20;;;;;;;2.21;86.21;96331.91;5968056;29;20241;-40
2023/04/14 08:43:18;;;;;;;0.20;0.20;;;;;;;2.31;85.25;96332.16;5975243;29;20227;-40
2023/04/14 08:46:24;;;;;;;0.23;0.20;;;;;;;2.00;85.58;96282.47;5970403;29;20231;-40
2023/04/14 08:49:35;;;;;;;0.10;0.10;;;;;;;2.28;85.29;96308.97;5970781;29;20255;-40
2023/04/14 08:52:39;;;;;;;0.10;0.10;;;;;;;2.27;85.72;96303.97;5970458;29;20895;-41
2023/04/14 08:55:42;;;;;;;0.17;0.10;;;;;;;2.26;85.13;96308.38;5970768;29;20317;-41
2023/04/14 08:58:46;;;;;;;0.73;0.20;;;;;;;2.12;85.61;96328.00;5953811;29;20236;-42
2023/04/14 09:01:51;;;;;;;0.17;0.17;;;;;;;2.07;86.26;96346.25;5953799;29;20326;-41
2023/04/14 09:04:56;;;;;;;0.30;0.20;;;;;;;2.06;86.27;96376.13;5966715;29;20245;-49
2023/04/14 09:07:59;;;;;;;0.20;0.10;;;;;;;2.06;85.61;96386.66;5970594;29;20238;-51
2023/04/14 09:11:02;;;;;;;0.10;0.10;;;;;;;1.95;85.25;96375.06;5969738;29;20710;-48
2023/04/14 09:14:05;;;;;;;0.10;0.10;;;;;;;1.90;84.63;96353.91;5961234;29;20245;-49
2023/04/14 09:17:08;;;;;;;0.10;0.10;;;;;;;1.84;84.34;96357.41;5968709;29;20616;-49
2023/04/14 09:20:12;;;;;;;0.10;0.10;;;;;;;1.71;84.45;96353.09;5971137;29;20226;-52
2023/04/14 09:23:34;;;;;;;0.33;0.20;;;;;;;1.65;85.11;96359.22;5969304;29;20316;-52
2023/04/14 09:26:36;;;;;;;0.10;0.10;;;;;;;1.57;85.73;96348.19;5970404;29;20276;-51
2023/04/14 09:29:40;;;;;;;1.07;0.10;;;;;;;1.30;85.82;96327.47;5968599;29;20285;-51
2023/04/14 09:32:50;;;;;;;0.10;0.10;;;;;;;1.58;85.54;96358.50;5960793;29;20252;-51
2023/04/14 09:35:52;;;;;;;0.20;0.10;;;;;;;1.58;85.58;96353.25;5969350;29;20243;-49
2023/04/14 09:38:54;;;;;;;0.17;0.17;;;;;;;1.70;84.88;96354.13;5968040;29;20239;-51
2023/04/14 09:41:57;;;;;;;0.20;0.20;;;;;;;1.76;84.58;96363.72;5969174;29;20244;-50
2023/04/14 09:45:03;;;;;;;0.10;0.10;;;;;;;1.64;85.57;96369.94;5971364;29;20319;-50
2023/04/14 09:48:06;;;;;;;0.20;0.17;;;;;;;1.55;86.27;96358.91;5972695;29;20303;-49
2023/04/14 09:51:09;;;;;;;0.20;0.20;;;;;;;1.60;86.44;96372.19;5974399;29;20247;-48
2023/04/14 09:54:11;;;;;;;0.10;0.10;;;;;;;1.44;86.18;96363.06;5973441;29;20236;-51
2023/04/14 09:57:25;;;;;;;0.20;0.10;;;;;;;1.44;86.58;96388.50;5973195;29;20221;-51
2023/04/14 10:00:30;;;;;;;0.10;0.10;;;;;;;1.39;86.63;96391.78;5973080;29;20591;-50
2023/04/14 10:03:34;;;;;;;0.13;0.13;;;;;;;1.54;85.90;96389.63;5973241;29;20237;-51
2023/04/14 10:06:39;;;;;;;0.60;0.20;;;;;;;1.53;85.42;96387.22;5974560;29;20230;-48
2023/04/14 10:09:42;;;;;;;0.10;0.10;;;;;;;1.58;85.69;96395.25;5973277;29;20243;-48
2023/04/14 10:12:45;;;;;;;0.13;0.10;;;;;;;1.51;85.90;96378.72;5973172;29;20232;-49
2023/04/14 10:15:47;;;;;;;0.10;0.10;;;;;;;1.68;85.72;96390.28;5972876;29;20235;-40
2023/04/14 10:18:52;;;;;;;0.10;0.10;;;;;;;1.66;85.33;96386.25;5973398;29;20287;-40
2023/04/14 10:21:56;;;;;;;0.10;0.10;;;;;;;1.70;84.86;96385.63;5972608;29;20334;-40
2023/04/14 10:24:58;;;;;;;0.10;0.10;;;;;;;0.86;85.63;96286.50;5972788;29;20235;-40
2023/04/14 10:28:01;;;;;;;0.20;0.20;;;;;;;1.61;85.82;96389.53;5972488;29;20254;-41
2023/04/14 10:31:07;;;;;;;0.10;0.10;;;;;;;1.67;86.01;96385.25;5972689;29;20243;-40
2023/04/14 10:34:10;;;;;;;0.90;0.20;;;;;;;1.58;86.26;96392.63;5972940;29;20335;-40
2023/04/14 10:37:14;;;;;;;0.10;0.10;;;;;;;1.54;86.74;96392.22;5971463;29;20246;-40
2023/04/14 10:40:16;;;;;;;0.20;0.20;;;;;;;1.57;86.58;96379.69;5963118;29;20316;-40
2023/04/14 10:43:20;;;;;;;0.10;0.10;;;;;;;1.54;87.21;96388.81;5973070;29;20252;-40
2023/04/14 10:46:23;;;;;;;1.23;0.17;;;;;;;1.33;87.06;96363.78;5972995;29;20274;-40
2023/04/14 10:49:35;;;;;;;0.10;0.10;;;;;;;1.63;87.27;96391.97;5973090;29;20243;-48
2023/04/14 10:52:49;;;;;;;0.10;0.10;;;;;;;1.73;86.53;96389.66;5973498;29;20254;-51
2023/04/14 10:55:53;;;;;;;0.53;0.10;;;;;;;1.76;86.58;96394.44;5975178;29;20253;-48
2023/04/14 10:58:57;;;;;;;0.00;0.00;;;;;;;1.77;86.88;96386.38;5972308;29;20760;-49
2023/04/14 11:02:00;;;;;;;0.10;0.10;;;;;;;2.02;84.95;96394.19;5971085;29;20920;-50
2023/04/14 11:05:05;;;;;;;0.10;0.10;;;;;;;1.91;85.85;96399.34;5972237;29;20378;-47
2023/04/14 11:08:13;;;;;;;0.10;0.10;;;;;;;2.07;85.51;96393.53;5953440;29;20241;-49
2023/04/14 11:11:15;;;;;;;0.00;0.00;;;;;;;1.97;86.15;96380.91;5972244;29;20365;-50
2023/04/14 11:14:26;;;;;;;0.60;0.10;;;;;;;1.42;84.67;96299.50;5972712;29;20382;-48
2023/04/14 11:17:29;;;;;;;0.10;0.10;;;;;;;2.04;85.03;96391.31;5969773;29;20299;-48
2023/04/14 11:20:31;;;;;;;0.00;0.00;;;;;;;1.94;86.43;96404.97;5971802;29;20245;-47
2023/04/14 11:23:35;;;;;;;0.43;0.10;;;;;;;1.94;85.73;96391.03;5970607;29;20249;-50
2023/04/14 11:26:39;;;;;;;0.10;0.10;;;;;;;1.95;85.46;96401.31;5971656;29;20243;-48
2023/04/14 11:29:41;;;;;;;0.10;0.10;;;;;;;1.97;85.68;96399.28;5970933;29;20620;-48
2023/04/14 11:32:49;;;;;;;0.10;0.10;;;;;;;2.08;84.97;96399.56;5969646;29;20253;-50
2023/04/14 11:35:52;;;;;;;0.10;0.10;;;;;;;1.99;85.19;96394.59;5971649;29;20681;-49
2023/04/14 11:38:54;;;;;;;0.10;0.10;;;;;;;1.97;85.19;96375.66;5966541;29;20243;-50
2023/04/14 11:41:59;;;;;;;0.30;0.20;;;;;;;2.13;85.06;96390.00;5971708;29;20245;-48
2023/04/14 11:45:02;;;;;;;0.00;0.00;;;;;;;2.08;84.63;96392.50;5971118;29;20261;-48
2023/04/14 11:48:05;;;;;;;0.10;0.10;;;;;;;2.05;85.98;96392.94;5971473;29;20706;-53
2023/04/14 11:51:08;;;;;;;0.43;0.13;;;;;;;2.10;85.62;96387.00;5971666;29;20248;-49
2023/04/14 11:54:13;;;;;;;0.10;0.10;;;;;;;2.21;83.50;96384.44;5971511;29;20224;-50
2023/04/14 11:57:17;;;;;;;0.20;0.20;;;;;;;2.11;84.65;96389.41;5970074;29;20228;-52
2023/04/14 12:00:20;;;;;;;0.10;0.10;;;;;;;2.13;85.66;96391.84;5962826;29;20692;-49
2023/04/14 12:03:27;;;;;;;0.07;0.07;;;;;;;2.09;85.09;96367.81;5971917;29;20718;-50
2023/04/14 12:06:49;;;;;;;0.10;0.10;;;;;;;2.24;83.94;96380.59;5970954;29;20975;-53
2023/04/14 12:09:53;;;;;;;0.30;0.20;;;;;;;2.12;85.58;96382.34;5969524;29;20249;-48
2023/04/14 12:13:01;;;;;;;0.10;0.10;;;;;;;2.26;84.11;96379.31;5970754;29;20338;-50
2023/04/14 12:16:04;;;;;;;0.17;0.10;;;;;;;2.15;85.42;96372.19;5961227;29;20724;-48
2023/04/14 12:19:06;;;;;;;0.10;0.10;;;;;;;2.25;84.93;96380.34;5970397;29;20618;-49
2023/04/14 12:22:08;;;;;;;0.17;0.10;;;;;;;2.26;84.57;96373.28;5970863;29;20387;-51
2023/04/14 12:25:11;;;;;;;0.50;0.37;;;;;;;2.37;84.55;96377.81;5971688;29;20330;-50
2023/04/14 12:28:23;;;;;;;0.10;0.10;;;;;;;2.36;84.02;96372.75;5970641;29;20245;-51
2023/04/14 12:31:29;;;;;;;0.10;0.10;;;;;;;2.46;84.46;96373.00;5970712;29;20334;-51
2023/04/14 12:34:31;;;;;;;0.10;0.10;;;;;;;2.57;83.44;96367.81;5970572;29;20238;-39
2023/04/14 12:37:34;;;;;;;0.10;0.10;;;;;;;2.35;84.18;96369.31;5970327;29;20748;-40
2023/04/14 12:40:38;;;;;;;0.10;0.10;;;;;;;2.41;83.23;96357.13;5969200;29;20240;-40
2023/04/14 12:43:41;;;;;;;1.03;0.10;;;;;;;2.38;84.65;96378.59;5971001;29;20744;-40
2023/04/14 12:46:50;;;;;;;0.10;0.10;;;;;;;2.43;83.97;96381.38;5970130;29;20240;-40
2023/04/14 12:49:53;;;;;;;0.40;0.20;;;;;;;2.40;85.27;96379.16;5965728;29;20252;-40
2023/04/14 12:52:56;;;;;;;0.23;0.20;;;;;;;2.64;82.95;96369.56;5970295;29;20247;-41
2023/04/14 12:56:12;;;;;;;0.10;0.10;;;;;;;2.50;83.76;96374.19;5953567;29;20246;-41
2023/04/14 12:59:15;;;;;;;0.17;0.10;;;;;;;2.47;83.52;96383.34;5967792;29;20251;-41
2023/04/14 13:02:17;;;;;;;0.20;0.20;;;;;;;2.56;83.94;96375.91;5971961;29;20336;-42
2023/04/14 13:05:20;;;;;;;0.10;0.10;;;;;;;2.43;84.33;96376.09;5971092;29;20242;-41
2023/04/14 13:08:22;;;;;;;0.60;0.23;;;;;;;2.63;83.18;96371.38;5969896;29;20253;-41
2023/04/14 13:11:24;;;;;;;0.20;0.20;;;;;;;2.53;83.80;96374.53;5969759;29;20339;-41
2023/04/14 13:14:27;;;;;;;0.20;0.10;;;;;;;2.67;84.30;96362.03;5954404;29;20247;-41
2023/04/14 13:17:29;;;;;;;0.20;0.20;;;;;;;2.62;83.23;96367.16;5970131;29;20331;-41
2023/04/14 13:20:32;;;;;;;0.10;0.10;;;;;;;2.53;84.86;96364.03;5971431;29;20246;-49
2023/04/14 13:23:35;;;;;;;0.20;0.20;;;;;;;2.62;84.13;96358.47;5958449;29;20243;-50
2023/04/14 13:26:37;;;;;;;0.10;0.10;;;;;;;2.56;85.04;96355.72;5974034;29;20248;-50
2023/04/14 13:29:39;;;;;;;0.10;0.10;;;;;;;2.59;85.13;96359.69;5974591;29;20237;-50
2023/04/14 13:32:43;;;;;;;0.10;0.10;;;;;;;2.66;85.22;96357.81;5973225;29;20470;-50
2023/04/14 13:35:45;;;;;;;0.10;0.10;;;;;;;2.71;82.81;96343.97;5973511;29;20231;-50
2023/04/14 13:38:47;;;;;;;0.17;0.17;;;;;;;2.56;84.90;96350.47;5973011;29;20670;-50
2023/04/14 13:41:50;;;;;;;0.30;0.30;;;;;;;2.61;85.28;96354.22;5957852;29;20233;-41
2023/04/14 13:44:52;;;;;;;0.10;0.10;;;;;;;2.66;84.37;96342.03;5973005;29;20248;-41
2023/04/14 13:47:54;;;;;;;0.10;0.10;;;;;;;2.62;84.13;96337.44;5974254;29;20710;-41
2023/04/14 13:50:58;;;;;;;0.47;0.20;;;;;;;2.65;84.36;96342.22;5972629;29;20865;-41
2023/04/14 13:54:00;;;;;;;0.17;0.17;;;;;;;2.87;83.40;96339.91;5973941;29;20598;-49
2023/04/14 13:57:02;;;;;;;0.10;0.10;;;;;;;2.66;84.24;96336.78;5972376;29;20238;-48
2023/04/14 14:00:07;;;;;;;0.20;0.20;;;;;;;2.72;84.94;96333.22;5974038;29;20225;-47
2023/04/14 14:03:09;;;;;;;0.10;0.10;;;;;;;2.84;83.94;96336.69;5973009;29;20698;-51
2023/04/14 14:06:11;;;;;;;0.10;0.10;;;;;;;2.72;84.39;96333.22;5974587;29;20238;-47
2023/04/14 14:09:13;;;;;;;0.30;0.30;;;;;;;2.64;83.62;96304.63;5974618;29;20236;-48
2023/04/14 14:12:16;;;;;;;0.33;0.10;;;;;;;2.75;83.88;96321.44;5972844;29;20249;-47
2023/04/14 14:15:18;;;;;;;0.10;0.10;;;;;;;2.67;85.10;96333.09;5972171;29;20224;-51
2023/04/14 14:18:20;;;;;;;0.20;0.20;;;;;;;2.63;85.46;96326.69;5972636;29;20369;-51
2023/04/14 14:21:22;;;;;;;0.17;0.17;;;;;;;2.86;83.22;96328.59;5972547;29;20237;-48
2023/04/14 14:24:24;;;;;;;1.07;0.23;;;;;;;2.77;84.60;96322.03;5973829;29;20729;-47
2023/04/14 14:27:26;;;;;;;0.20;0.20;;;;;;;2.78;84.94;96328.91;5972923;29;20235;-48
2023/04/14 14:30:28;;;;;;;0.20;0.20;;;;;;;2.91;84.43;96320.00;5971063;29;20252;-49
2023/04/14 14:33:30;;;;;;;0.20;0.20;;;;;;;2.89;83.44;96308.91;5973345;29;20234;-49
2023/04/14 14:36:33;;;;;;;0.13;0.13;;;;;;;2.87;84.47;96332.00;5972220;29;20718;-49
2023/04/14 14:39:35;;;;;;;0.20;0.20;;;;;;;2.90;84.86;96315.75;5971030;29;20240;-48
2023/04/14 14:42:37;;;;;;;0.20;0.20;;;;;;;3.06;84.04;96328.28;5972512;29;20237;-48